Time;durP1;ratioP1;P1;durP2;ratioP2;P2;SDS_P1;SDS_P2;PMS_P1;PMS_P2;Temp;Humidity;BMP_temperature;BMP_pressure;BME280_temperature;BME280_humidity;BME280_pressure;Samples;Min_cycle;Max_cycle;Signal;HPM_P1;HPM_P2
2023/10/10 00:00:24;;;;;;;25.07;20.23;;;17.40;99.90;;;;;;5052505;28;20966;-79
2023/10/10 00:02:51;;;;;;;26.70;20.90;;;17.40;99.90;;;;;;5054861;28;20437;-79
2023/10/10 00:05:27;;;;;;;25.67;19.87;;;17.30;99.90;;;;;;5054083;28;20446;-79
2023/10/10 00:07:59;;;;;;;29.33;21.00;;;17.30;99.90;;;;;;5053586;28;20455;-79
2023/10/10 00:10:27;;;;;;;31.33;21.87;;;17.30;99.90;;;;;;5054067;28;20453;-79
2023/10/10 00:12:54;;;;;;;26.47;20.03;;;17.30;99.90;;;;;;5053838;28;20455;-79
2023/10/10 00:15:28;;;;;;;35.90;22.37;;;17.30;99.90;;;;;;5053957;28;20513;-79
2023/10/10 00:18:02;;;;;;;31.20;21.03;;;17.30;99.90;;;;;;5053411;28;21016;-79
2023/10/10 00:20:35;;;;;;;29.57;20.67;;;17.30;99.90;;;;;;5054388;28;20445;-79
2023/10/10 00:23:04;;;;;;;29.53;23.70;;;17.20;99.90;;;;;;5053674;28;20454;-79
2023/10/10 00:25:31;;;;;;;31.03;22.70;;;17.20;99.90;;;;;;5054240;28;20829;-79
2023/10/10 00:28:04;;;;;;;33.70;24.53;;;17.20;99.90;;;;;;5052725;28;20455;-78
2023/10/10 00:30:42;;;;;;;27.27;22.20;;;17.20;99.90;;;;;;5054215;28;20454;-79
2023/10/10 00:33:11;;;;;;;27.30;22.90;;;17.20;99.90;;;;;;5052860;28;20491;-79
2023/10/10 00:35:42;;;;;;;27.77;20.93;;;17.20;99.90;;;;;;5054679;28;20449;-79
2023/10/10 00:38:12;;;;;;;31.83;21.93;;;17.20;99.90;;;;;;5051746;28;20471;-79
2023/10/10 00:40:40;;;;;;;25.17;20.90;;;17.10;99.90;;;;;;5054363;28;20467;-79
2023/10/10 00:43:13;;;;;;;31.60;22.83;;;17.20;99.90;;;;;;5053954;28;20503;-79
2023/10/10 00:45:44;;;;;;;27.57;22.30;;;17.20;99.90;;;;;;5054931;28;20452;-79
2023/10/10 00:48:16;;;;;;;28.90;22.40;;;17.20;99.90;;;;;;5052723;28;20965;-79
2023/10/10 00:50:46;;;;;;;29.20;23.27;;;17.20;99.90;;;;;;5057847;28;20465;-78
2023/10/10 00:53:15;;;;;;;29.83;24.67;;;17.20;99.90;;;;;;5060925;28;20454;-79
2023/10/10 00:55:47;;;;;;;29.97;23.67;;;17.20;99.90;;;;;;5054179;28;20515;-77
2023/10/10 00:58:15;;;;;;;33.37;27.03;;;17.20;99.90;;;;;;5053660;28;20482;-78
2023/10/10 01:00:47;;;;;;;35.23;27.17;;;17.20;99.90;;;;;;5053715;28;21011;-79
2023/10/10 01:03:21;;;;;;;33.37;26.83;;;17.10;99.90;;;;;;5053237;28;20898;-79
2023/10/10 01:05:52;;;;;;;39.80;29.90;;;17.20;99.90;;;;;;5053937;28;20537;-79
2023/10/10 01:08:19;;;;;;;38.90;30.00;;;17.20;99.90;;;;;;5052255;28;20873;-79
2023/10/10 01:10:49;;;;;;;39.37;30.60;;;17.20;99.90;;;;;;5052948;28;20476;-79
2023/10/10 01:13:16;;;;;;;34.70;29.67;;;17.20;99.90;;;;;;5052928;28;20981;-79
2023/10/10 01:15:44;;;;;;;36.53;29.40;;;17.20;99.90;;;;;;5053059;28;20460;-78
2023/10/10 01:18:15;;;;;;;37.13;30.47;;;17.20;99.90;;;;;;5051850;28;20581;-78
2023/10/10 01:20:46;;;;;;;43.50;34.90;;;17.20;99.90;;;;;;5056025;28;20470;-79
2023/10/10 01:23:15;;;;;;;41.37;33.40;;;17.20;99.90;;;;;;5055613;28;20986;-78
2023/10/10 01:25:43;;;;;;;47.23;37.73;;;17.20;99.90;;;;;;5056045;28;20894;-79
2023/10/10 01:28:33;;;;;;;46.17;35.77;;;17.20;99.90;;;;;;5055040;28;20539;-78
2023/10/10 01:31:05;;;;;;;50.53;35.60;;;17.20;99.90;;;;;;5054295;28;20509;-78
2023/10/10 01:36:22;;;;;;;43.87;35.37;;;17.20;99.90;;;;;;5051350;28;20442;-79
2023/10/10 01:39:21;;;;;;;51.47;36.50;;;17.20;99.90;;;;;;5054578;28;20501;-79
2023/10/10 01:41:49;;;;;;;38.87;33.93;;;17.20;99.90;;;;;;5053743;28;20471;-79
2023/10/10 01:44:18;;;;;;;42.50;34.03;;;17.20;99.90;;;;;;5053960;28;20469;-78
2023/10/10 01:46:45;;;;;;;40.73;32.63;;;17.20;99.90;;;;;;5053638;28;20462;-79
2023/10/10 01:49:19;;;;;;;40.73;32.37;;;17.20;99.90;;;;;;5052419;28;20451;-78
2023/10/10 01:51:53;;;;;;;39.07;32.87;;;17.30;99.90;;;;;;5053668;28;20514;-79
2023/10/10 01:54:21;;;;;;;43.33;32.93;;;17.20;99.90;;;;;;5053462;28;20455;-79
2023/10/10 01:56:51;;;;;;;41.23;34.30;;;17.30;99.90;;;;;;5053702;28;20462;-79
2023/10/10 01:59:24;;;;;;;43.97;34.13;;;17.30;99.90;;;;;;5052803;28;21036;-79
2023/10/10 02:01:53;;;;;;;43.20;34.20;;;17.20;99.90;;;;;;5053842;28;20535;-78
2023/10/10 02:04:27;;;;;;;38.00;30.20;;;17.20;99.90;;;;;;5052532;28;20569;-79
2023/10/10 02:06:57;;;;;;;35.40;28.53;;;17.20;99.90;;;;;;5053436;28;20534;-78
2023/10/10 02:09:33;;;;;;;34.10;27.30;;;17.20;99.90;;;;;;5052538;28;20955;-79
2023/10/10 02:12:08;;;;;;;30.77;27.47;;;17.20;99.90;;;;;;5054042;28;20484;-79
2023/10/10 02:14:36;;;;;;;41.67;29.10;;;17.20;99.90;;;;;;5054116;28;20454;-79
2023/10/10 02:17:20;;;;;;;31.30;25.90;;;17.10;99.90;;;;;;5052779;28;20532;-79
2023/10/10 02:19:53;;;;;;;39.83;28.80;;;17.10;99.90;;;;;;5053193;28;20473;-79
2023/10/10 02:22:33;;;;;;;35.57;27.30;;;17.10;99.90;;;;;;5053599;28;20461;-79
2023/10/10 02:25:36;;;;;;;38.07;28.37;;;17.10;99.90;;;;;;5056756;28;20485;-78
2023/10/10 02:28:02;;;;;;;32.93;26.60;;;17.10;99.90;;;;;;5056300;28;20557;-79
2023/10/10 02:30:34;;;;;;;30.37;25.80;;;17.10;99.90;;;;;;5057797;28;20443;-78
2023/10/10 02:33:05;;;;;;;31.27;25.60;;;17.00;99.90;;;;;;5056734;28;20456;-78
2023/10/10 02:35:46;;;;;;;28.70;25.20;;;17.00;99.90;;;;;;5056667;28;20453;-78
2023/10/10 02:38:16;;;;;;;31.30;24.10;;;17.00;99.90;;;;;;5055734;28;21184;-78
2023/10/10 02:40:43;;;;;;;31.83;25.70;;;17.00;99.90;;;;;;5056683;28;20477;-77
2023/10/10 02:43:19;;;;;;;33.07;26.63;;;17.00;99.90;;;;;;5056530;28;20544;-78
2023/10/10 02:45:46;;;;;;;27.50;23.03;;;17.00;99.90;;;;;;5057232;28;21015;-78
2023/10/10 02:48:20;;;;;;;34.17;25.17;;;17.00;99.90;;;;;;5056123;28;20825;-78
2023/10/10 02:50:51;;;;;;;35.27;25.83;;;17.00;99.90;;;;;;5059195;28;20472;-77
2023/10/10 02:53:19;;;;;;;31.60;26.67;;;17.10;99.90;;;;;;5063179;28;20534;-80
2023/10/10 02:55:50;;;;;;;37.43;26.57;;;17.10;99.90;;;;;;5063245;28;20453;-79
2023/10/10 02:58:21;;;;;;;34.90;25.57;;;17.10;99.90;;;;;;5063202;28;20478;-81
2023/10/10 03:00:52;;;;;;;33.13;26.87;;;17.10;99.90;;;;;;5063694;28;20483;-80
2023/10/10 03:03:19;;;;;;;35.37;27.10;;;17.10;99.90;;;;;;5063739;28;20523;-79
2023/10/10 03:05:51;;;;;;;34.03;25.93;;;17.10;99.90;;;;;;5058207;28;20504;-80
2023/10/10 03:11:14;;;;;;;33.57;24.53;;;17.10;99.90;;;;;;5051909;28;21723;-78
2023/10/10 03:13:47;;;;;;;28.97;25.53;;;17.10;99.90;;;;;;5050342;28;20450;-79
2023/10/10 03:19:13;;;;;;;32.37;24.53;;;17.20;99.90;;;;;;5045425;28;20994;-77
2023/10/10 03:21:44;;;;;;;36.60;25.43;;;17.20;99.90;;;;;;5055575;28;20544;-78
2023/10/10 03:24:30;;;;;;;31.47;24.50;;;17.20;99.90;;;;;;5055327;28;20947;-78
2023/10/10 03:27:01;;;;;;;29.23;23.00;;;17.30;99.90;;;;;;5055926;28;20467;-78
2023/10/10 03:29:37;;;;;;;37.20;25.40;;;17.30;99.90;;;;;;5055169;28;20447;-80
2023/10/10 03:32:20;;;;;;;29.70;22.27;;;17.30;99.90;;;;;;5055709;28;20513;-78
2023/10/10 03:34:56;;;;;;;31.00;23.17;;;17.30;99.90;;;;;;5054808;28;20470;-77
2023/10/10 03:37:28;;;;;;;35.17;24.80;;;17.30;99.90;;;;;;5054543;28;20454;-78
2023/10/10 03:40:08;;;;;;;34.13;25.30;;;17.30;99.90;;;;;;5055096;28;20563;-77
2023/10/10 05:24:12;;;;;;;51.57;30.33;;;16.60;99.90;;;;;;5056278;28;20434;-81
2023/10/10 05:26:46;;;;;;;40.63;28.50;;;16.60;99.90;;;;;;5054710;28;20451;-81
2023/10/10 05:29:13;;;;;;;48.30;28.20;;;16.60;99.90;;;;;;5053817;28;20438;-81
2023/10/10 05:31:44;;;;;;;52.20;32.30;;;16.60;99.90;;;;;;5053848;28;20474;-81
2023/10/10 05:34:14;;;;;;;48.73;29.57;;;16.60;99.90;;;;;;5053907;28;20445;-81
2023/10/10 05:36:42;;;;;;;53.70;31.03;;;16.60;99.90;;;;;;5053888;28;20543;-81
2023/10/10 05:39:11;;;;;;;43.20;28.97;;;16.60;99.90;;;;;;5053408;28;20491;-80
2023/10/10 05:41:40;;;;;;;61.37;33.87;;;16.60;99.90;;;;;;5054745;28;20911;-82
2023/10/10 05:44:08;;;;;;;53.10;33.87;;;16.50;99.90;;;;;;5054675;28;21050;-79
2023/10/10 05:46:35;;;;;;;48.20;31.10;;;16.50;99.90;;;;;;5054654;28;20463;-80
2023/10/10 05:49:03;;;;;;;46.13;30.80;;;16.50;99.90;;;;;;5053559;28;20456;-81
2023/10/10 05:51:31;;;;;;;45.17;29.10;;;16.50;99.90;;;;;;5054827;28;20477;-82
2023/10/10 05:53:58;;;;;;;45.50;31.10;;;16.50;99.90;;;;;;5054909;28;20541;-81
2023/10/10 05:56:24;;;;;;;46.27;30.80;;;16.50;99.90;;;;;;5055450;28;20547;-79
2023/10/10 05:58:52;;;;;;;47.67;32.23;;;16.50;99.90;;;;;;5056804;28;20484;-81
2023/10/10 06:01:20;;;;;;;52.27;33.30;;;16.50;99.90;;;;;;5055221;28;20471;-80
2023/10/10 06:03:46;;;;;;;52.17;32.60;;;16.50;99.90;;;;;;5061985;28;20524;-81
2023/10/10 06:06:15;;;;;;;48.23;30.63;;;16.50;99.90;;;;;;5061743;28;20480;-80
2023/10/10 06:08:44;;;;;;;47.33;30.90;;;16.50;99.90;;;;;;5062408;28;20832;-81
2023/10/10 06:11:13;;;;;;;42.27;29.27;;;16.40;99.90;;;;;;5062967;28;20532;-81
2023/10/10 06:13:43;;;;;;;51.33;32.10;;;16.50;99.90;;;;;;5062197;28;20483;-81
2023/10/10 06:16:12;;;;;;;52.37;32.77;;;16.40;99.90;;;;;;5060692;28;20858;-80
2023/10/10 06:18:44;;;;;;;54.20;32.53;;;16.40;99.90;;;;;;5059241;28;20513;-81
2023/10/10 06:21:11;;;;;;;54.33;34.00;;;16.50;99.90;;;;;;5059050;28;21048;-80
2023/10/10 06:23:41;;;;;;;50.40;32.73;;;16.40;99.90;;;;;;5060474;28;20453;-80
2023/10/10 06:26:10;;;;;;;57.30;33.77;;;16.50;99.90;;;;;;5059683;28;20952;-80
2023/10/10 06:28:44;;;;;;;49.43;32.60;;;16.40;99.90;;;;;;5059387;28;20488;-81
2023/10/10 06:31:17;;;;;;;51.77;38.07;;;16.40;99.90;;;;;;5060172;28;20485;-81
2023/10/10 06:33:44;;;;;;;65.77;39.50;;;16.50;99.90;;;;;;5060584;28;20447;-81
2023/10/10 06:36:33;;;;;;;56.70;38.43;;;16.50;99.90;;;;;;5059706;28;20459;-80
2023/10/10 06:41:51;;;;;;;51.67;35.90;;;16.50;99.90;;;;;;5041556;28;20460;-80
2023/10/10 06:44:31;;;;;;;54.37;38.70;;;16.50;99.90;;;;;;5060177;28;20470;-80
2023/10/10 06:46:59;;;;;;;50.43;34.47;;;16.60;99.90;;;;;;5055300;28;20532;-80
2023/10/10 06:49:35;;;;;;;53.23;37.33;;;16.70;99.90;;;;;;5059200;28;20677;-79
2023/10/10 06:52:02;;;;;;;49.23;35.20;;;16.70;99.90;;;;;;5058117;28;20471;-81
2023/10/10 06:54:29;;;;;;;51.37;36.80;;;16.70;99.90;;;;;;5059790;28;20561;-79
2023/10/10 06:57:05;;;;;;;50.97;37.23;;;16.70;99.90;;;;;;5060353;28;20482;-81
2023/10/10 06:59:35;;;;;;;53.37;37.97;;;16.80;99.90;;;;;;5056462;28;20484;-80
2023/10/10 07:02:13;;;;;;;45.17;34.60;;;16.80;99.90;;;;;;5054098;28;20475;-81
2023/10/10 07:04:40;;;;;;;51.20;37.30;;;16.80;99.90;;;;;;5054520;28;20459;-79
2023/10/10 07:07:08;;;;;;;52.20;37.97;;;16.80;99.90;;;;;;5059087;28;20841;-81
2023/10/10 07:09:37;;;;;;;49.73;37.30;;;16.80;99.90;;;;;;5065214;28;20457;-81
2023/10/10 07:12:10;;;;;;;50.10;34.70;;;16.80;99.90;;;;;;5065800;28;20848;-81
2023/10/10 07:14:40;;;;;;;50.30;36.53;;;16.90;99.90;;;;;;5063457;28;20465;-82
2023/10/10 07:17:11;;;;;;;50.70;36.30;;;16.90;99.90;;;;;;5067371;28;20968;-80
2023/10/10 07:19:55;;;;;;;51.23;36.90;;;17.00;99.90;;;;;;5060460;28;20483;-79
2023/10/10 07:22:22;;;;;;;47.87;34.73;;;16.90;99.90;;;;;;5060229;28;20476;-80
2023/10/10 07:24:55;;;;;;;48.83;33.90;;;17.00;99.90;;;;;;5061490;28;20470;-80
2023/10/10 07:27:30;;;;;;;45.47;33.60;;;17.10;99.90;;;;;;5061386;28;20522;-81
2023/10/10 07:30:08;;;;;;;52.33;34.47;;;17.00;99.90;;;;;;5062711;28;20446;-80
2023/10/10 07:32:38;;;;;;;46.60;34.77;;;17.10;99.90;;;;;;5061726;28;20477;-80
2023/10/10 07:35:06;;;;;;;51.07;31.23;;;17.10;99.90;;;;;;5059162;28;20455;-79
2023/10/10 07:37:33;;;;;;;50.37;36.23;;;17.20;99.90;;;;;;5056957;28;20452;-81
2023/10/10 07:40:18;;;;;;;43.53;32.27;;;17.20;99.90;;;;;;5057593;28;20570;-80
2023/10/10 07:42:50;;;;;;;41.43;32.23;;;17.30;99.90;;;;;;5054210;28;20477;-80
2023/10/10 07:45:26;;;;;;;39.70;31.60;;;17.20;99.90;;;;;;5058422;28;20544;-80
2023/10/10 07:50:35;;;;;;;38.23;28.23;;;17.40;99.90;;;;;;5044499;28;20430;-81
2023/10/10 07:53:05;;;;;;;34.73;25.90;;;17.40;99.90;;;;;;5058889;28;20488;-81
2023/10/10 07:55:51;;;;;;;39.70;27.37;;;17.40;99.90;;;;;;5058124;28;20481;-81
2023/10/10 07:58:23;;;;;;;33.13;23.47;;;17.50;99.90;;;;;;5057401;28;20459;-81
2023/10/10 08:00:50;;;;;;;28.23;21.13;;;17.50;99.90;;;;;;5057407;28;20509;-80
2023/10/10 08:03:20;;;;;;;30.17;20.70;;;17.60;99.90;;;;;;5058175;28;20508;-79
2023/10/10 08:05:48;;;;;;;29.10;20.67;;;17.70;99.90;;;;;;5059029;28;20470;-80
2023/10/10 08:08:16;;;;;;;29.10;18.87;;;17.80;99.90;;;;;;5058919;28;20463;-81
2023/10/10 08:10:45;;;;;;;25.37;18.43;;;17.90;99.90;;;;;;5057123;28;20474;-81
2023/10/10 08:13:14;;;;;;;24.43;16.17;;;17.90;99.90;;;;;;5056093;28;20456;-81
2023/10/10 08:15:56;;;;;;;22.77;15.53;;;18.00;99.90;;;;;;5056707;28;20456;-79
2023/10/10 08:21:09;;;;;;;22.43;15.97;;;18.10;99.90;;;;;;5057508;28;20491;-81
2023/10/10 08:23:36;;;;;;;19.37;15.43;;;18.20;99.90;;;;;;5057183;28;20444;-80
2023/10/10 08:26:03;;;;;;;18.70;13.70;;;18.30;99.90;;;;;;5060377;28;20451;-80
2023/10/10 08:28:30;;;;;;;20.93;14.40;;;18.40;99.90;;;;;;5057764;28;20444;-80
2023/10/10 08:31:00;;;;;;;18.63;14.10;;;18.30;99.90;;;;;;5055333;28;20482;-82
2023/10/10 08:33:32;;;;;;;15.73;12.30;;;18.30;99.90;;;;;;5058859;28;20482;-82
2023/10/10 08:35:59;;;;;;;20.50;13.20;;;18.40;99.90;;;;;;5059597;28;20482;-80
2023/10/10 08:38:26;;;;;;;17.97;13.03;;;18.50;99.90;;;;;;5056797;28;20958;-81
2023/10/10 08:40:57;;;;;;;19.30;12.03;;;18.50;99.90;;;;;;5060211;28;20594;-83
2023/10/10 08:43:30;;;;;;;20.83;12.60;;;18.60;99.90;;;;;;5039588;28;20423;-80
2023/10/10 08:46:03;;;;;;;18.33;11.47;;;18.60;99.90;;;;;;5047977;28;20962;-79
2023/10/10 08:48:33;;;;;;;16.07;12.00;;;18.70;99.90;;;;;;5059047;28;20464;-79
2023/10/10 08:51:03;;;;;;;16.23;10.27;;;18.70;99.90;;;;;;5061732;28;20551;-85
2023/10/10 08:53:34;;;;;;;18.57;10.60;;;18.80;99.90;;;;;;5062015;28;20444;-82
2023/10/10 08:56:03;;;;;;;15.93;10.23;;;18.90;99.90;;;;;;5063534;28;20460;-81
2023/10/10 08:58:31;;;;;;;14.07;9.00;;;18.90;99.90;;;;;;5064256;28;20463;-81
2023/10/10 09:01:00;;;;;;;19.03;10.27;;;19.00;99.90;;;;;;5064880;28;20519;-79
2023/10/10 09:03:27;;;;;;;14.63;9.30;;;18.90;99.90;;;;;;5063385;28;20483;-81
2023/10/10 09:05:55;;;;;;;12.53;8.80;;;19.00;99.90;;;;;;5062222;28;20472;-80
2023/10/10 09:08:26;;;;;;;15.03;8.10;;;19.20;99.90;;;;;;5061697;28;20460;-80
2023/10/10 09:10:58;;;;;;;16.43;8.43;;;19.20;99.90;;;;;;5060569;28;20561;-84
2023/10/10 09:13:26;;;;;;;16.73;9.07;;;19.30;99.90;;;;;;5054739;28;20464;-82
2023/10/10 09:15:55;;;;;;;10.50;7.27;;;19.30;99.90;;;;;;5055504;28;20455;-83
2023/10/10 09:18:25;;;;;;;13.27;7.50;;;19.40;99.90;;;;;;5045068;28;20455;-79
2023/10/10 09:20:53;;;;;;;10.63;7.00;;;19.50;99.90;;;;;;5053791;28;20491;-80
2023/10/10 09:23:23;;;;;;;16.47;8.30;;;19.50;99.90;;;;;;5057266;28;20477;-80
2023/10/10 09:26:08;;;;;;;13.17;7.80;;;19.50;99.90;;;;;;5062708;28;20463;-80
2023/10/10 09:28:44;;;;;;;9.80;7.23;;;19.70;99.90;;;;;;5064484;28;20466;-80
2023/10/10 09:31:20;;;;;;;15.27;7.30;;;19.80;99.90;;;;;;5063766;28;20538;-80
2023/10/10 09:33:54;;;;;;;14.57;7.30;;;19.80;99.90;;;;;;5066189;28;20478;-80
2023/10/10 09:36:26;;;;;;;8.70;5.73;;;19.90;99.90;;;;;;5067928;28;20452;-80
2023/10/10 09:38:55;;;;;;;9.97;6.23;;;19.90;99.90;;;;;;5065438;28;20448;-80
2023/10/10 09:41:37;;;;;;;15.20;6.87;;;20.00;99.90;;;;;;5067103;28;20518;-80
2023/10/10 09:47:13;;;;;;;11.40;5.80;;;20.10;99.90;;;;;;5067349;28;20439;-79
2023/10/10 09:49:43;;;;;;;11.80;5.70;;;20.10;99.90;;;;;;5066952;28;20444;-81
2023/10/10 09:55:21;;;;;;;12.57;6.10;;;20.20;99.90;;;;;;5060958;28;20808;-79
2023/10/10 09:58:00;;;;;;;7.80;5.33;;;20.20;99.90;;;;;;5062903;28;20455;-80
2023/10/10 10:00:35;;;;;;;7.00;4.90;;;20.30;99.90;;;;;;5053419;28;20494;-81
2023/10/10 10:03:31;;;;;;;7.27;4.80;;;20.40;99.90;;;;;;5064930;28;20519;-80
2023/10/10 10:05:58;;;;;;;11.63;5.70;;;20.50;99.90;;;;;;5062545;28;20448;-81
2023/10/10 10:08:38;;;;;;;8.47;5.67;;;20.70;99.90;;;;;;5058481;28;20534;-81
2023/10/10 10:11:14;;;;;;;9.77;5.70;;;20.80;99.90;;;;;;5061576;28;20467;-80
2023/10/10 10:13:53;;;;;;;7.53;4.70;;;20.90;99.90;;;;;;5061066;28;20490;-80
2023/10/10 10:16:32;;;;;;;8.57;5.10;;;21.00;99.90;;;;;;5055737;28;20459;-80
2023/10/10 10:19:12;;;;;;;6.23;3.97;;;21.00;99.90;;;;;;5061120;28;20452;-79
2023/10/10 10:21:52;;;;;;;8.70;4.93;;;21.10;99.90;;;;;;5056787;28;20491;-79
2023/10/10 10:24:26;;;;;;;7.97;4.87;;;21.30;99.90;;;;;;5064237;28;20824;-80
2023/10/10 10:27:12;;;;;;;6.83;4.23;;;21.40;99.90;;;;;;5057856;28;20442;-79
2023/10/10 10:29:42;;;;;;;9.10;4.87;;;21.70;99.90;;;;;;5062814;28;20519;-80
2023/10/10 10:32:13;;;;;;;8.13;5.13;;;22.00;99.90;;;;;;5061194;28;20972;-81
2023/10/10 10:34:45;;;;;;;7.13;4.70;;;22.00;99.90;;;;;;5064446;28;20514;-80
2023/10/10 10:37:23;;;;;;;7.83;4.23;;;22.10;99.90;;;;;;5068566;28;20459;-80
2023/10/10 10:42:52;;;;;;;7.23;4.60;;;22.40;99.90;;;;;;4999890;28;20434;-80
2023/10/10 10:45:33;;;;;;;8.83;5.40;;;22.40;99.90;;;;;;5049323;28;20487;-80
2023/10/10 10:48:05;;;;;;;9.13;5.03;;;22.60;99.90;;;;;;5064156;28;20459;-80
2023/10/10 10:50:57;;;;;;;7.07;5.30;;;22.50;99.90;;;;;;5064243;28;20444;-79
2023/10/10 10:53:32;;;;;;;7.20;4.50;;;22.60;99.90;;;;;;5065204;28;20460;-81
2023/10/10 11:01:55;;;;;;;8.67;4.50;;;23.70;99.90;;;;;;5070854;27;1240084;-79
2023/10/10 11:04:42;;;;;;;9.37;4.70;;;24.20;99.90;;;;;;5099694;28;20498;-80
2023/10/10 11:07:16;;;;;;;6.50;4.97;;;24.50;99.90;;;;;;5109468;28;20463;-78
2023/10/10 11:09:52;;;;;;;6.90;4.50;;;24.90;99.90;;;;;;5110362;28;20518;-79
2023/10/10 11:12:24;;;;;;;7.23;5.00;;;25.00;99.90;;;;;;5097624;28;20469;-80
2023/10/10 11:14:54;;;;;;;6.77;4.20;;;25.20;99.90;;;;;;5096670;28;20484;-80
2023/10/10 11:17:24;;;;;;;8.37;4.60;;;25.30;99.90;;;;;;5095988;28;20446;-80
2023/10/10 11:19:54;;;;;;;6.57;4.07;;;25.50;99.90;;;;;;5095033;28;20501;-79
2023/10/10 11:25:05;;;;;;;8.30;3.80;;;26.00;99.90;;;;;;5109740;28;20449;-80
2023/10/10 11:27:43;;;;;;;7.67;4.93;;;26.40;97.10;;;;;;5110796;28;20445;-80
2023/10/10 11:30:11;;;;;;;7.70;4.43;;;26.50;98.10;;;;;;5103119;28;20451;-80
2023/10/10 11:32:47;;;;;;;9.47;4.23;;;26.90;99.90;;;;;;5095646;28;20481;-79
2023/10/10 11:35:22;;;;;;;9.40;4.83;;;27.30;99.90;;;;;;5096934;28;20949;-79
2023/10/10 11:37:59;;;;;;;7.90;4.40;;;27.50;91.70;;;;;;5108675;28;20863;-80
2023/10/10 11:40:32;;;;;;;9.03;5.07;;;27.60;90.00;;;;;;5099129;28;20470;-79
2023/10/10 11:43:00;;;;;;;7.17;4.80;;;27.70;91.90;;;;;;5109009;28;20445;-80
2023/10/10 11:45:27;;;;;;;8.10;4.30;;;27.80;99.90;;;;;;5106729;28;20523;-79
2023/10/10 11:48:00;;;;;;;8.70;4.10;;;28.00;97.50;;;;;;5094298;28;20834;-78
2023/10/10 11:50:46;;;;;;;6.30;4.73;;;28.10;93.60;;;;;;5096456;28;20438;-80
2023/10/10 11:53:15;;;;;;;5.90;4.10;;;28.30;92.90;;;;;;5098564;28;20805;-79
2023/10/10 11:55:42;;;;;;;7.23;3.93;;;28.40;91.60;;;;;;5099544;28;20445;-80
2023/10/10 11:58:16;;;;;;;6.27;4.53;;;28.50;88.60;;;;;;5101150;28;20481;-80
2023/10/10 12:00:43;;;;;;;4.87;3.90;;;28.60;90.60;;;;;;5099150;28;20501;-81
2023/10/10 12:03:12;;;;;;;7.00;4.40;;;28.70;93.20;;;;;;5093176;28;20860;-81
2023/10/10 12:05:48;;;;;;;6.73;3.80;;;29.00;92.50;;;;;;5101392;28;20533;-81
2023/10/10 12:08:22;;;;;;;8.80;4.90;;;29.20;87.20;;;;;;5091646;28;20450;-81
2023/10/10 12:10:52;;;;;;;9.77;4.63;;;29.40;88.30;;;;;;5094412;28;20466;-81
2023/10/10 12:13:33;;;;;;;7.27;4.17;;;29.70;80.60;;;;;;5083072;28;20898;-81
2023/10/10 12:16:01;;;;;;;5.87;4.20;;;29.90;76.70;;;;;;5081480;28;20477;-80
2023/10/10 12:18:31;;;;;;;7.47;5.03;;;29.90;73.90;;;;;;5082960;28;20532;-81
2023/10/10 12:20:58;;;;;;;8.10;4.20;;;30.00;75.40;;;;;;5079486;28;20556;-80
2023/10/10 12:23:25;;;;;;;5.00;3.87;;;30.00;72.70;;;;;;5080372;28;20455;-81
2023/10/10 12:25:54;;;;;;;6.53;4.27;;;30.10;71.30;;;;;;5080642;28;20482;-80
2023/10/10 12:28:21;;;;;;;7.77;4.33;;;30.40;72.70;;;;;;5076446;28;20461;-79
2023/10/10 12:30:48;;;;;;;6.63;4.00;;;30.40;71.80;;;;;;5084489;28;20492;-80
2023/10/10 12:33:16;;;;;;;5.90;4.07;;;30.20;71.50;;;;;;5095903;28;20456;-80
2023/10/10 12:35:47;;;;;;;5.93;4.07;;;30.40;69.50;;;;;;5097194;28;20489;-81
2023/10/10 12:38:20;;;;;;;6.97;4.10;;;30.00;68.00;;;;;;5077967;28;20502;-80
2023/10/10 12:40:47;;;;;;;13.87;4.93;;;29.80;71.00;;;;;;5076126;28;20494;-80
2023/10/10 12:43:14;;;;;;;7.00;4.50;;;29.70;75.90;;;;;;5075959;28;20451;-80
2023/10/10 12:45:41;;;;;;;6.60;4.63;;;29.60;77.80;;;;;;5076838;28;20950;-81
2023/10/10 12:48:13;;;;;;;6.43;4.13;;;29.70;76.40;;;;;;5085242;28;20828;-80
2023/10/10 12:50:41;;;;;;;6.77;4.50;;;29.50;75.50;;;;;;5081888;28;20467;-83
2023/10/10 12:53:15;;;;;;;9.30;5.13;;;29.50;71.90;;;;;;5082353;28;20515;-80
2023/10/10 12:55:48;;;;;;;7.87;5.23;;;29.80;74.30;;;;;;5082225;28;20450;-80
2023/10/10 12:58:16;;;;;;;7.97;4.37;;;29.50;71.00;;;;;;5084319;28;20434;-79
2023/10/10 13:00:50;;;;;;;9.37;4.93;;;29.60;77.10;;;;;;5089628;28;20542;-82
2023/10/10 13:03:18;;;;;;;8.10;4.80;;;29.70;75.00;;;;;;5081552;28;20518;-81
2023/10/10 13:05:48;;;;;;;8.17;4.23;;;29.70;76.00;;;;;;5085985;28;20570;-76
2023/10/10 13:08:20;;;;;;;7.87;4.40;;;29.70;77.90;;;;;;5085165;28;20442;-79
2023/10/10 13:10:54;;;;;;;7.70;4.77;;;29.90;80.20;;;;;;5081062;28;20467;-78
2023/10/10 13:13:26;;;;;;;8.97;4.70;;;29.90;77.60;;;;;;5081828;28;20435;-79
2023/10/10 13:16:07;;;;;;;7.27;4.10;;;30.10;82.60;;;;;;5090871;28;20491;-77
2023/10/10 13:18:35;;;;;;;10.10;4.57;;;30.20;83.00;;;;;;5087941;28;20466;-77
2023/10/10 13:21:03;;;;;;;10.13;5.07;;;30.50;75.30;;;;;;5095271;28;20570;-77
2023/10/10 13:23:31;;;;;;;8.30;4.83;;;30.30;75.50;;;;;;5085588;28;20931;-78
2023/10/10 13:25:58;;;;;;;6.57;4.90;;;30.70;74.60;;;;;;5079538;28;20457;-78
2023/10/10 13:28:25;;;;;;;8.60;4.53;;;30.80;69.80;;;;;;5079158;28;20538;-78
2023/10/10 13:30:52;;;;;;;13.70;6.00;;;31.10;70.90;;;;;;5085981;28;20558;-78
2023/10/10 13:33:21;;;;;;;8.00;5.20;;;31.10;67.00;;;;;;5077580;28;20455;-78
2023/10/10 13:35:48;;;;;;;8.63;4.67;;;31.40;73.20;;;;;;5078958;28;20825;-79
2023/10/10 13:38:15;;;;;;;7.77;4.50;;;31.50;73.60;;;;;;5083621;28;20973;-80
2023/10/10 13:40:45;;;;;;;11.30;4.67;;;31.50;70.30;;;;;;5093117;28;20491;-79
2023/10/10 13:43:16;;;;;;;6.00;3.67;;;31.60;68.10;;;;;;5088913;28;20459;-79
2023/10/10 13:45:45;;;;;;;7.30;4.70;;;31.50;68.40;;;;;;5080412;28;20451;-79
2023/10/10 13:48:14;;;;;;;10.97;4.97;;;30.80;73.10;;;;;;5083861;28;20490;-79
2023/10/10 13:50:45;;;;;;;7.90;4.50;;;29.60;77.30;;;;;;5095086;28;20519;-77
2023/10/10 13:53:13;;;;;;;7.13;4.37;;;29.00;77.10;;;;;;5102831;28;20525;-77
2023/10/10 13:55:43;;;;;;;5.47;4.13;;;28.20;80.10;;;;;;5083186;28;20491;-78
2023/10/10 13:58:12;;;;;;;8.43;4.90;;;27.90;82.20;;;;;;5084312;28;20475;-78
2023/10/10 14:00:41;;;;;;;8.80;5.00;;;27.40;83.40;;;;;;5088388;28;20522;-78
2023/10/10 14:03:08;;;;;;;7.60;4.00;;;26.90;86.40;;;;;;5090181;28;20989;-79
2023/10/10 14:05:37;;;;;;;9.23;4.20;;;26.60;88.80;;;;;;5075434;28;20520;-79
2023/10/10 14:08:07;;;;;;;12.50;5.50;;;26.10;93.30;;;;;;5072666;28;20867;-79
2023/10/10 14:10:38;;;;;;;11.43;4.87;;;25.50;86.50;;;;;;5079704;28;20454;-79
2023/10/10 14:13:23;;;;;;;7.23;4.13;;;25.30;94.50;;;;;;5076281;28;21028;-79
2023/10/10 14:15:57;;;;;;;9.80;4.10;;;25.00;94.80;;;;;;5076543;28;20465;-79
2023/10/10 14:18:26;;;;;;;9.83;5.07;;;24.70;93.60;;;;;;5074092;28;20546;-77
2023/10/10 14:20:53;;;;;;;8.33;4.43;;;24.70;96.70;;;;;;5075348;28;20482;-79
2023/10/10 14:23:20;;;;;;;7.07;4.17;;;24.50;99.90;;;;;;5075070;28;20462;-78
2023/10/10 14:25:47;;;;;;;6.97;5.80;;;24.30;99.90;;;;;;5078760;28;20514;-79
2023/10/10 14:28:17;;;;;;;7.07;4.30;;;24.10;99.90;;;;;;5081353;28;20455;-79
2023/10/10 14:30:48;;;;;;;6.80;5.20;;;24.00;99.90;;;;;;5093504;28;20462;-79
2023/10/10 14:33:16;;;;;;;7.60;4.17;;;23.90;99.90;;;;;;5080263;28;20553;-78
2023/10/10 14:35:43;;;;;;;10.83;4.43;;;23.90;99.90;;;;;;5075965;28;20529;-79
2023/10/10 14:38:14;;;;;;;7.47;4.50;;;23.80;99.90;;;;;;5073662;28;20478;-79
2023/10/10 14:40:41;;;;;;;6.73;4.17;;;23.70;99.90;;;;;;5075121;28;20553;-79
2023/10/10 14:43:10;;;;;;;6.30;3.90;;;23.50;99.90;;;;;;5093887;28;20468;-79
2023/10/10 14:45:42;;;;;;;6.57;4.43;;;23.30;99.90;;;;;;5086095;28;20542;-80
2023/10/10 14:48:10;;;;;;;8.17;4.60;;;23.20;99.90;;;;;;5078531;28;20802;-79
2023/10/10 14:50:39;;;;;;;10.50;4.87;;;23.20;99.90;;;;;;5078942;28;20485;-80
2023/10/10 14:53:08;;;;;;;11.57;4.30;;;23.10;99.90;;;;;;5077896;28;20527;-79
2023/10/10 14:55:44;;;;;;;7.77;4.43;;;23.00;99.90;;;;;;5079848;28;20474;-79
2023/10/10 14:58:12;;;;;;;8.23;3.90;;;23.00;99.90;;;;;;5087402;28;20446;-79
2023/10/10 15:00:41;;;;;;;8.47;4.50;;;23.00;99.90;;;;;;5076879;28;21014;-80
2023/10/10 15:03:15;;;;;;;9.17;4.53;;;23.00;99.90;;;;;;5079902;28;20454;-79
2023/10/10 15:05:49;;;;;;;7.13;4.47;;;22.90;99.90;;;;;;5080980;28;20463;-78
2023/10/10 15:08:17;;;;;;;8.23;4.20;;;22.80;99.90;;;;;;5084305;28;20530;-78
2023/10/10 15:10:44;;;;;;;7.00;3.87;;;22.80;99.90;;;;;;5088928;28;20938;-79
2023/10/10 15:13:11;;;;;;;10.70;4.63;;;22.70;99.90;;;;;;5077523;28;20832;-79